Terminal Aerodrome Forecast
Issued by NWS Upton, NY

Current Version | Previous Version | Text Only | Print | Product List | Glossary On
Versions: 1 2 3 4 5 6 7 8 9 10 11 12 13 14 15 16 17 18 19 20 21 22 23 24 25 26 27 28
000
FTUS41 KOKX 012300
TAFJFK
TAF
KJFK 012327Z 0200/0306 VRB04KT 4SM -FZRASN OVC010
     FM020300 VRB03KT 5SM FZRASN OVC010
     FM020600 25006KT 5SM BR OVC010
     FM020900 27008KT P6SM SCT015 BKN025
     FM021200 30013G22KT P6SM SCT025 BKN050
     FM021400 30018G27KT P6SM FEW050 SCT250
     FM030000 30014G20KT P6SM SCT250=

USA.gov is the U.S. government's official web portal to all federal, state and local government web resources and services.